sensor_id;sensor_type;location;lat;lon;timestamp;pressure;altitude;pressure_sealevel;temperature;humidity
13593;BME280;6867;50.998;4.250;2022-11-18T00:00:35;99185.50;;;12.05;75.38
13593;BME280;6867;50.998;4.250;2022-11-18T00:03:02;99194.56;;;12.26;75.65
13593;BME280;6867;50.998;4.250;2022-11-18T00:05:28;99187.28;;;12.26;75.28
13593;BME280;6867;50.998;4.250;2022-11-18T00:07:55;99194.34;;;12.32;75.45
13593;BME280;6867;50.998;4.250;2022-11-18T00:10:22;99189.81;;;12.38;74.95
13593;BME280;6867;50.998;4.250;2022-11-18T00:12:48;99193.13;;;12.50;74.79
13593;BME280;6867;50.998;4.250;2022-11-18T00:15:34;99187.78;;;12.55;74.43
13593;BME280;6867;50.998;4.250;2022-11-18T00:18:00;99189.41;;;12.56;73.99
13593;BME280;6867;50.998;4.250;2022-11-18T00:20:27;99185.16;;;12.65;73.91
13593;BME280;6867;50.998;4.250;2022-11-18T00:22:54;99195.44;;;12.74;73.79
13593;BME280;6867;50.998;4.250;2022-11-18T00:25:20;99191.31;;;12.61;73.56
13593;BME280;6867;50.998;4.250;2022-11-18T00:27:47;99202.00;;;12.88;73.15
13593;BME280;6867;50.998;4.250;2022-11-18T00:30:14;99199.56;;;12.91;72.80
13593;BME280;6867;50.998;4.250;2022-11-18T00:32:42;99196.94;;;13.02;72.65
13593;BME280;6867;50.998;4.250;2022-11-18T00:35:09;99203.44;;;13.06;72.21
13593;BME280;6867;50.998;4.250;2022-11-18T00:37:36;99197.97;;;12.95;71.96
13593;BME280;6867;50.998;4.250;2022-11-18T00:50:09;99206.13;;;13.01;71.22
13593;BME280;6867;50.998;4.250;2022-11-18T00:52:36;99199.63;;;12.96;70.72
13593;BME280;6867;50.998;4.250;2022-11-18T00:55:03;99191.03;;;13.05;70.78
13593;BME280;6867;50.998;4.250;2022-11-18T00:57:30;99203.22;;;13.17;70.54
13593;BME280;6867;50.998;4.250;2022-11-18T00:59:57;99201.59;;;13.16;70.80
13593;BME280;6867;50.998;4.250;2022-11-18T01:02:23;99200.94;;;12.94;70.45
13593;BME280;6867;50.998;4.250;2022-11-18T01:04:50;99213.63;;;12.99;70.91
13593;BME280;6867;50.998;4.250;2022-11-18T01:07:18;99215.63;;;12.71;71.23
13593;BME280;6867;50.998;4.250;2022-11-18T01:09:45;99224.53;;;12.71;71.37
13593;BME280;6867;50.998;4.250;2022-11-18T01:12:11;99222.38;;;12.74;71.03
13593;BME280;6867;50.998;4.250;2022-11-18T01:14:57;99229.69;;;12.78;71.18
13593;BME280;6867;50.998;4.250;2022-11-18T01:17:24;99224.69;;;12.55;71.09
13593;BME280;6867;50.998;4.250;2022-11-18T01:19:50;99228.50;;;12.64;70.90
13593;BME280;6867;50.998;4.250;2022-11-18T01:22:18;99222.28;;;12.58;70.65
13593;BME280;6867;50.998;4.250;2022-11-18T01:24:45;99223.25;;;12.42;70.68
13593;BME280;6867;50.998;4.250;2022-11-18T01:27:12;99219.34;;;12.28;70.40
13593;BME280;6867;50.998;4.250;2022-11-18T01:29:39;99228.41;;;12.16;70.49
13593;BME280;6867;50.998;4.250;2022-11-18T01:32:05;99247.31;;;12.00;71.50
13593;BME280;6867;50.998;4.250;2022-11-18T01:34:32;99246.84;;;12.03;71.19
13593;BME280;6867;50.998;4.250;2022-11-18T01:36:59;99252.47;;;12.01;71.62
13593;BME280;6867;50.998;4.250;2022-11-18T01:39:27;99250.50;;;11.91;71.43
13593;BME280;6867;50.998;4.250;2022-11-18T01:41:53;99251.66;;;12.01;70.91
13593;BME280;6867;50.998;4.250;2022-11-18T01:47:37;99252.19;;;11.76;71.60
13593;BME280;6867;50.998;4.250;2022-11-18T01:50:06;99278.63;;;11.62;72.39
13593;BME280;6867;50.998;4.250;2022-11-18T01:52:34;99287.38;;;11.52;72.54
13593;BME280;6867;50.998;4.250;2022-11-18T01:55:09;99299.09;;;11.63;73.05
13593;BME280;6867;50.998;4.250;2022-11-18T01:57:36;99304.53;;;11.68;73.21
13593;BME280;6867;50.998;4.250;2022-11-18T02:00:05;99311.91;;;11.78;73.27
13593;BME280;6867;50.998;4.250;2022-11-18T02:02:35;99306.38;;;11.84;73.45
13593;BME280;6867;50.998;4.250;2022-11-18T02:05:04;99306.00;;;11.98;73.33
13593;BME280;6867;50.998;4.250;2022-11-18T02:07:32;99314.06;;;11.98;73.37
13593;BME280;6867;50.998;4.250;2022-11-18T02:10:01;99325.44;;;12.05;73.52
13593;BME280;6867;50.998;4.250;2022-11-18T02:12:31;99317.06;;;12.01;73.37
13593;BME280;6867;50.998;4.250;2022-11-18T02:14:58;99306.00;;;11.98;73.23
13593;BME280;6867;50.998;4.250;2022-11-18T02:17:35;99310.75;;;11.90;72.77
13593;BME280;6867;50.998;4.250;2022-11-18T02:20:23;99319.38;;;11.70;73.24
13593;BME280;6867;50.998;4.250;2022-11-18T02:26:23;99311.00;;;11.67;72.81
13593;BME280;6867;50.998;4.250;2022-11-18T02:28:59;99324.28;;;11.57;72.51
13593;BME280;6867;50.998;4.250;2022-11-18T02:31:31;99325.53;;;11.49;72.63
13593;BME280;6867;50.998;4.250;2022-11-18T02:34:05;99333.41;;;11.34;72.82
13593;BME280;6867;50.998;4.250;2022-11-18T02:36:39;99357.53;;;11.29;73.63
13593;BME280;6867;50.998;4.250;2022-11-18T02:39:11;99348.88;;;11.27;73.32
13593;BME280;6867;50.998;4.250;2022-11-18T02:41:43;99361.94;;;11.18;73.82
13593;BME280;6867;50.998;4.250;2022-11-18T02:44:14;99350.13;;;11.19;73.55
13593;BME280;6867;50.998;4.250;2022-11-18T02:46:45;99351.03;;;11.08;73.29
13593;BME280;6867;50.998;4.250;2022-11-18T02:49:16;99361.59;;;11.14;73.53
13593;BME280;6867;50.998;4.250;2022-11-18T02:51:44;99346.69;;;11.07;72.70
13593;BME280;6867;50.998;4.250;2022-11-18T02:54:12;99350.53;;;10.94;73.21
13593;BME280;6867;50.998;4.250;2022-11-18T02:56:41;99358.25;;;10.90;73.21
13593;BME280;6867;50.998;4.250;2022-11-18T02:59:09;99360.53;;;10.82;73.29
13593;BME280;6867;50.998;4.250;2022-11-18T03:01:37;99365.09;;;10.81;73.27
13593;BME280;6867;50.998;4.250;2022-11-18T03:04:03;99367.47;;;10.78;73.62
13593;BME280;6867;50.998;4.250;2022-11-18T03:06:34;99376.72;;;10.70;73.29
13593;BME280;6867;50.998;4.250;2022-11-18T03:09:08;99395.28;;;10.71;74.30
13593;BME280;6867;50.998;4.250;2022-11-18T03:11:45;99394.16;;;10.67;74.17
13593;BME280;6867;50.998;4.250;2022-11-18T03:14:21;99386.75;;;10.75;73.91
13593;BME280;6867;50.998;4.250;2022-11-18T03:16:57;99394.28;;;10.61;74.23
13593;BME280;6867;50.998;4.250;2022-11-18T03:19:31;99398.63;;;10.62;74.67
13593;BME280;6867;50.998;4.250;2022-11-18T03:22:05;99388.91;;;10.61;74.18
13593;BME280;6867;50.998;4.250;2022-11-18T03:24:33;99394.41;;;10.66;73.63
13593;BME280;6867;50.998;4.250;2022-11-18T03:27:08;99420.91;;;10.62;74.44
13593;BME280;6867;50.998;4.250;2022-11-18T03:29:41;99412.88;;;10.62;74.01
13593;BME280;6867;50.998;4.250;2022-11-18T03:32:16;99412.31;;;10.48;74.49
13593;BME280;6867;50.998;4.250;2022-11-18T03:34:46;99417.56;;;10.55;74.92
13593;BME280;6867;50.998;4.250;2022-11-18T03:37:15;99420.91;;;10.62;74.91
13593;BME280;6867;50.998;4.250;2022-11-18T03:39:46;99421.25;;;10.66;74.80
13593;BME280;6867;50.998;4.250;2022-11-18T03:42:18;99428.47;;;10.65;74.83
13593;BME280;6867;50.998;4.250;2022-11-18T03:44:51;99427.09;;;10.63;74.65
13593;BME280;6867;50.998;4.250;2022-11-18T03:47:24;99416.44;;;10.68;74.34
13593;BME280;6867;50.998;4.250;2022-11-18T03:49:57;99432.59;;;10.56;75.12
13593;BME280;6867;50.998;4.250;2022-11-18T03:52:28;99432.84;;;10.55;75.22
13593;BME280;6867;50.998;4.250;2022-11-18T03:54:58;99441.59;;;10.62;75.16
13593;BME280;6867;50.998;4.250;2022-11-18T03:57:30;99452.34;;;10.62;75.68
13593;BME280;6867;50.998;4.250;2022-11-18T04:00:05;99439.47;;;10.64;74.69
13593;BME280;6867;50.998;4.250;2022-11-18T04:02:34;99460.69;;;10.65;75.05
13593;BME280;6867;50.998;4.250;2022-11-18T04:05:03;99477.44;;;10.56;76.68
13593;BME280;6867;50.998;4.250;2022-11-18T04:07:32;99464.97;;;10.78;75.39
13593;BME280;6867;50.998;4.250;2022-11-18T04:10:03;99470.94;;;10.80;75.74
13593;BME280;6867;50.998;4.250;2022-11-18T04:12:38;99468.63;;;10.72;75.58
13593;BME280;6867;50.998;4.250;2022-11-18T04:15:08;99463.22;;;10.55;75.60
13593;BME280;6867;50.998;4.250;2022-11-18T04:17:36;99476.63;;;10.55;75.83
13593;BME280;6867;50.998;4.250;2022-11-18T04:20:06;99476.50;;;10.62;76.17
13593;BME280;6867;50.998;4.250;2022-11-18T04:22:35;99478.94;;;10.63;75.77
13593;BME280;6867;50.998;4.250;2022-11-18T04:25:01;99480.22;;;10.61;76.36
13593;BME280;6867;50.998;4.250;2022-11-18T04:27:28;99471.69;;;10.64;76.06
13593;BME280;6867;50.998;4.250;2022-11-18T04:29:54;99472.97;;;10.61;75.71
13593;BME280;6867;50.998;4.250;2022-11-18T04:32:21;99478.59;;;10.60;76.02
13593;BME280;6867;50.998;4.250;2022-11-18T04:34:49;99467.38;;;10.63;76.00
13593;BME280;6867;50.998;4.250;2022-11-18T04:37:16;99471.81;;;10.57;75.58
13593;BME280;6867;50.998;4.250;2022-11-18T04:39:42;99485.59;;;10.61;75.53
13593;BME280;6867;50.998;4.250;2022-11-18T04:42:09;99482.56;;;10.57;75.44
13593;BME280;6867;50.998;4.250;2022-11-18T04:44:36;99474.06;;;10.48;75.82
13593;BME280;6867;50.998;4.250;2022-11-18T04:47:04;99498.66;;;10.57;76.04
13593;BME280;6867;50.998;4.250;2022-11-18T04:49:32;99492.50;;;10.57;75.95
13593;BME280;6867;50.998;4.250;2022-11-18T04:52:00;99497.41;;;10.60;75.90
13593;BME280;6867;50.998;4.250;2022-11-18T04:54:27;99497.31;;;10.55;75.66
13593;BME280;6867;50.998;4.250;2022-11-18T04:56:55;99506.53;;;10.47;76.11
13593;BME280;6867;50.998;4.250;2022-11-18T04:59:23;99512.25;;;10.51;76.47
13593;BME280;6867;50.998;4.250;2022-11-18T05:01:51;99505.56;;;10.53;75.95
13593;BME280;6867;50.998;4.250;2022-11-18T05:04:20;99513.06;;;10.51;76.24
13593;BME280;6867;50.998;4.250;2022-11-18T05:06:47;99505.72;;;10.46;75.90
13593;BME280;6867;50.998;4.250;2022-11-18T05:09:16;99506.41;;;10.54;75.26
13593;BME280;6867;50.998;4.250;2022-11-18T05:11:43;99520.78;;;10.36;75.83
13593;BME280;6867;50.998;4.250;2022-11-18T05:14:28;99514.50;;;10.42;75.50
13593;BME280;6867;50.998;4.250;2022-11-18T05:16:57;99513.69;;;10.41;75.97
13593;BME280;6867;50.998;4.250;2022-11-18T05:19:24;99521.03;;;10.34;75.56
13593;BME280;6867;50.998;4.250;2022-11-18T05:21:51;99525.69;;;10.39;75.29
13593;BME280;6867;50.998;4.250;2022-11-18T05:24:20;99518.34;;;10.34;75.19
13593;BME280;6867;50.998;4.250;2022-11-18T05:26:48;99527.13;;;10.30;76.02
13593;BME280;6867;50.998;4.250;2022-11-18T05:29:16;99536.78;;;10.31;75.60
13593;BME280;6867;50.998;4.250;2022-11-18T05:31:43;99541.25;;;10.25;75.75
13593;BME280;6867;50.998;4.250;2022-11-18T05:34:10;99545.19;;;10.34;76.10
13593;BME280;6867;50.998;4.250;2022-11-18T05:36:36;99545.19;;;10.34;76.41
13593;BME280;6867;50.998;4.250;2022-11-18T05:39:03;99555.13;;;10.34;76.43
13593;BME280;6867;50.998;4.250;2022-11-18T05:41:31;99547.97;;;10.39;76.08
13593;BME280;6867;50.998;4.250;2022-11-18T05:44:16;99547.97;;;10.39;76.56
13593;BME280;6867;50.998;4.250;2022-11-18T05:46:42;99551.72;;;10.38;76.16
13593;BME280;6867;50.998;4.250;2022-11-18T05:49:09;99555.94;;;10.34;76.48
13593;BME280;6867;50.998;4.250;2022-11-18T05:51:36;99553.34;;;10.39;76.03
13593;BME280;6867;50.998;4.250;2022-11-18T05:54:04;99548.44;;;10.36;76.13
13593;BME280;6867;50.998;4.250;2022-11-18T05:56:36;99561.88;;;10.36;76.41
13593;BME280;6867;50.998;4.250;2022-11-18T05:59:03;99558.03;;;10.32;76.24
13593;BME280;6867;50.998;4.250;2022-11-18T06:01:34;99576.50;;;10.29;76.54
13593;BME280;6867;50.998;4.250;2022-11-18T06:04:03;99575.44;;;10.30;76.56
13593;BME280;6867;50.998;4.250;2022-11-18T06:06:34;99573.81;;;10.29;75.92
13593;BME280;6867;50.998;4.250;2022-11-18T06:09:02;99584.88;;;10.32;76.52
13593;BME280;6867;50.998;4.250;2022-11-18T06:11:31;99582.78;;;10.34;76.44
13593;BME280;6867;50.998;4.250;2022-11-18T06:14:08;99578.47;;;10.33;76.06
13593;BME280;6867;50.998;4.250;2022-11-18T06:16:38;99585.00;;;10.26;76.05
13593;BME280;6867;50.998;4.250;2022-11-18T06:19:06;99579.03;;;10.12;76.00
13593;BME280;6867;50.998;4.250;2022-11-18T06:21:33;99600.00;;;10.15;76.85
13593;BME280;6867;50.998;4.250;2022-11-18T06:24:00;99596.31;;;10.16;76.14
13593;BME280;6867;50.998;4.250;2022-11-18T06:26:27;99600.03;;;10.27;76.68
13593;BME280;6867;50.998;4.250;2022-11-18T06:28:55;99603.53;;;10.27;76.24
13593;BME280;6867;50.998;4.250;2022-11-18T06:31:23;99605.88;;;10.35;76.47
13593;BME280;6867;50.998;4.250;2022-11-18T06:33:50;99621.97;;;10.47;77.40
13593;BME280;6867;50.998;4.250;2022-11-18T06:36:16;99616.59;;;10.59;77.00
13593;BME280;6867;50.998;4.250;2022-11-18T06:38:43;99611.59;;;10.62;76.54
13593;BME280;6867;50.998;4.250;2022-11-18T06:41:10;99612.41;;;10.51;76.11
13593;BME280;6867;50.998;4.250;2022-11-18T06:43:37;99627.81;;;10.44;76.40
13593;BME280;6867;50.998;4.250;2022-11-18T06:46:04;99622.91;;;10.53;76.03
13593;BME280;6867;50.998;4.250;2022-11-18T06:48:50;99622.34;;;10.51;75.66
13593;BME280;6867;50.998;4.250;2022-11-18T06:51:17;99633.66;;;10.29;76.30
13593;BME280;6867;50.998;4.250;2022-11-18T06:53:43;99644.97;;;10.43;76.44
13593;BME280;6867;50.998;4.250;2022-11-18T06:56:12;99650.59;;;10.41;76.47
13593;BME280;6867;50.998;4.250;2022-11-18T06:58:40;99635.88;;;10.56;76.28
13593;BME280;6867;50.998;4.250;2022-11-18T07:01:08;99643.00;;;10.62;76.03
13593;BME280;6867;50.998;4.250;2022-11-18T07:03:35;99648.38;;;10.62;75.76
13593;BME280;6867;50.998;4.250;2022-11-18T07:06:03;99654.56;;;10.62;76.23
13593;BME280;6867;50.998;4.250;2022-11-18T07:08:30;99671.94;;;10.60;76.21
13593;BME280;6867;50.998;4.250;2022-11-18T07:10:56;99664.34;;;10.68;76.22
13593;BME280;6867;50.998;4.250;2022-11-18T07:13:23;99662.00;;;10.84;75.85
13593;BME280;6867;50.998;4.250;2022-11-18T07:15:50;99659.75;;;10.92;76.11
13593;BME280;6867;50.998;4.250;2022-11-18T07:18:16;99658.69;;;11.05;75.77
13593;BME280;6867;50.998;4.250;2022-11-18T07:20:43;99673.28;;;10.97;76.06
13593;BME280;6867;50.998;4.250;2022-11-18T07:23:11;99672.31;;;11.15;75.74
13593;BME280;6867;50.998;4.250;2022-11-18T07:25:38;99671.47;;;11.27;75.95
13593;BME280;6867;50.998;4.250;2022-11-18T07:28:04;99669.97;;;11.19;75.70
13593;BME280;6867;50.998;4.250;2022-11-18T07:30:31;99687.56;;;11.38;75.73
13593;BME280;6867;50.998;4.250;2022-11-18T07:32:58;99679.34;;;11.45;75.45
13593;BME280;6867;50.998;4.250;2022-11-18T07:35:24;99682.97;;;11.51;75.16
13593;BME280;6867;50.998;4.250;2022-11-18T07:37:51;99684.16;;;11.71;74.93
13593;BME280;6867;50.998;4.250;2022-11-18T07:40:19;99686.59;;;11.73;74.76
13593;BME280;6867;50.998;4.250;2022-11-18T07:42:45;99678.66;;;11.50;74.30
13593;BME280;6867;50.998;4.250;2022-11-18T07:45:12;99701.44;;;11.76;74.69
13593;BME280;6867;50.998;4.250;2022-11-18T07:47:39;99699.47;;;11.71;74.52
13593;BME280;6867;50.998;4.250;2022-11-18T07:50:06;99698.06;;;11.68;74.66
13593;BME280;6867;50.998;4.250;2022-11-18T07:52:33;99714.09;;;11.75;74.64
13593;BME280;6867;50.998;4.250;2022-11-18T07:54:59;99715.63;;;11.71;74.61
13593;BME280;6867;50.998;4.250;2022-11-18T07:57:27;99720.03;;;11.77;74.77
13593;BME280;6867;50.998;4.250;2022-11-18T07:59:54;99727.75;;;11.85;74.74
13593;BME280;6867;50.998;4.250;2022-11-18T08:02:21;99732.06;;;11.86;74.73
13593;BME280;6867;50.998;4.250;2022-11-18T08:04:47;99737.97;;;12.00;74.82
13593;BME280;6867;50.998;4.250;2022-11-18T08:07:14;99727.94;;;11.95;74.49
13593;BME280;6867;50.998;4.250;2022-11-18T08:09:41;99729.88;;;11.83;74.75
13593;BME280;6867;50.998;4.250;2022-11-18T08:12:07;99736.25;;;12.11;74.50
13593;BME280;6867;50.998;4.250;2022-11-18T08:14:35;99728.59;;;12.03;74.47
13593;BME280;6867;50.998;4.250;2022-11-18T08:17:02;99733.31;;;11.95;74.42
13593;BME280;6867;50.998;4.250;2022-11-18T08:19:28;99733.16;;;12.02;73.88
13593;BME280;6867;50.998;4.250;2022-11-18T08:21:55;99738.72;;;12.12;74.01
13593;BME280;6867;50.998;4.250;2022-11-18T08:24:22;99743.28;;;12.12;73.91
13593;BME280;6867;50.998;4.250;2022-11-18T08:26:49;99746.50;;;12.26;73.70
13593;BME280;6867;50.998;4.250;2022-11-18T08:29:15;99755.63;;;12.41;73.67
13593;BME280;6867;50.998;4.250;2022-11-18T08:31:43;99760.84;;;12.48;73.39
13593;BME280;6867;50.998;4.250;2022-11-18T08:34:10;99727.66;;;12.26;72.93
13593;BME280;6867;50.998;4.250;2022-11-18T08:36:37;99750.47;;;12.23;73.27
13593;BME280;6867;50.998;4.250;2022-11-18T08:39:06;99747.53;;;12.41;73.12
13593;BME280;6867;50.998;4.250;2022-11-18T08:41:34;99750.00;;;12.43;72.64
13593;BME280;6867;50.998;4.250;2022-11-18T08:44:02;99749.81;;;12.33;73.04
13593;BME280;6867;50.998;4.250;2022-11-18T08:46:29;99753.25;;;12.28;72.75
13593;BME280;6867;50.998;4.250;2022-11-18T08:48:58;99762.75;;;12.48;72.86
13593;BME280;6867;50.998;4.250;2022-11-18T08:51:25;99754.72;;;12.53;72.42
13593;BME280;6867;50.998;4.250;2022-11-18T08:53:51;99743.63;;;12.49;72.25
13593;BME280;6867;50.998;4.250;2022-11-18T08:56:20;99773.75;;;12.80;72.38
13593;BME280;6867;50.998;4.250;2022-11-18T08:58:47;99770.56;;;12.66;72.29
13593;BME280;6867;50.998;4.250;2022-11-18T09:01:13;99758.16;;;12.82;71.88
13593;BME280;6867;50.998;4.250;2022-11-18T09:03:40;99755.03;;;12.90;71.70
13593;BME280;6867;50.998;4.250;2022-11-18T09:06:10;99745.34;;;12.72;71.49
13593;BME280;6867;50.998;4.250;2022-11-18T09:08:38;99757.75;;;12.73;71.49
13593;BME280;6867;50.998;4.250;2022-11-18T09:11:06;99772.09;;;12.95;71.41
13593;BME280;6867;50.998;4.250;2022-11-18T09:13:33;99766.50;;;12.63;71.14
13593;BME280;6867;50.998;4.250;2022-11-18T09:16:00;99761.66;;;12.82;70.85
13593;BME280;6867;50.998;4.250;2022-11-18T09:18:27;99781.66;;;12.86;70.92
13593;BME280;6867;50.998;4.250;2022-11-18T09:20:54;99788.56;;;13.16;70.63
13593;BME280;6867;50.998;4.250;2022-11-18T09:23:22;99777.06;;;13.04;70.23
13593;BME280;6867;50.998;4.250;2022-11-18T09:25:56;99785.44;;;12.52;70.98
13593;BME280;6867;50.998;4.250;2022-11-18T09:28:23;99779.69;;;12.99;70.34
13593;BME280;6867;50.998;4.250;2022-11-18T09:30:50;99778.59;;;13.16;70.21
13593;BME280;6867;50.998;4.250;2022-11-18T09:33:16;99781.03;;;13.35;69.30
13593;BME280;6867;50.998;4.250;2022-11-18T09:35:43;99772.41;;;13.55;68.99
13593;BME280;6867;50.998;4.250;2022-11-18T09:38:10;99787.78;;;13.37;69.64
13593;BME280;6867;50.998;4.250;2022-11-18T09:40:44;99786.66;;;13.33;69.63
13593;BME280;6867;50.998;4.250;2022-11-18T09:43:19;99791.34;;;13.38;69.66
13593;BME280;6867;50.998;4.250;2022-11-18T09:45:53;99791.47;;;13.48;69.03
13593;BME280;6867;50.998;4.250;2022-11-18T09:48:22;99789.63;;;13.32;69.29
13593;BME280;6867;50.998;4.250;2022-11-18T09:51:11;99778.78;;;13.49;68.62
13593;BME280;6867;50.998;4.250;2022-11-18T09:53:40;99787.94;;;13.69;67.97
13593;BME280;6867;50.998;4.250;2022-11-18T09:56:14;99787.56;;;13.61;67.92
13593;BME280;6867;50.998;4.250;2022-11-18T09:58:42;99795.81;;;13.71;68.51
13593;BME280;6867;50.998;4.250;2022-11-18T10:01:11;99807.53;;;13.60;68.64
13593;BME280;6867;50.998;4.250;2022-11-18T10:03:39;99799.44;;;13.38;68.53
13593;BME280;6867;50.998;4.250;2022-11-18T10:06:15;99792.25;;;13.70;67.88
13593;BME280;6867;50.998;4.250;2022-11-18T10:08:54;99799.38;;;13.77;67.83
13593;BME280;6867;50.998;4.250;2022-11-18T10:11:30;99805.59;;;13.55;67.69
13593;BME280;6867;50.998;4.250;2022-11-18T10:14:06;99790.63;;;13.69;67.36
13593;BME280;6867;50.998;4.250;2022-11-18T10:16:43;99809.13;;;13.83;67.69
13593;BME280;6867;50.998;4.250;2022-11-18T10:19:23;99811.03;;;13.82;67.13
13593;BME280;6867;50.998;4.250;2022-11-18T10:22:00;99814.16;;;13.52;67.69
13593;BME280;6867;50.998;4.250;2022-11-18T10:24:35;99819.75;;;13.45;68.26
13593;BME280;6867;50.998;4.250;2022-11-18T10:27:08;99829.75;;;13.67;68.52
13593;BME280;6867;50.998;4.250;2022-11-18T10:29:36;99826.84;;;13.74;67.65
13593;BME280;6867;50.998;4.250;2022-11-18T10:32:05;99821.72;;;13.72;67.90
13593;BME280;6867;50.998;4.250;2022-11-18T10:34:34;99840.41;;;13.57;68.08
13593;BME280;6867;50.998;4.250;2022-11-18T10:37:21;99852.75;;;13.75;68.30
13593;BME280;6867;50.998;4.250;2022-11-18T10:39:49;99852.22;;;13.73;67.93
13593;BME280;6867;50.998;4.250;2022-11-18T10:42:24;99839.28;;;13.75;68.10
13593;BME280;6867;50.998;4.250;2022-11-18T10:44:52;99854.22;;;13.82;67.72
13593;BME280;6867;50.998;4.250;2022-11-18T10:47:27;99849.38;;;14.06;67.56
13593;BME280;6867;50.998;4.250;2022-11-18T10:49:56;99836.72;;;14.12;66.68
13593;BME280;6867;50.998;4.250;2022-11-18T10:52:23;99827.16;;;13.99;66.96
13593;BME280;6867;50.998;4.250;2022-11-18T10:55:19;99846.84;;;14.22;66.74
13593;BME280;6867;50.998;4.250;2022-11-18T10:57:50;99827.03;;;13.89;67.09
13593;BME280;6867;50.998;4.250;2022-11-18T11:00:48;99837.53;;;14.34;66.88
13593;BME280;6867;50.998;4.250;2022-11-18T11:03:22;99838.69;;;14.43;66.36
13593;BME280;6867;50.998;4.250;2022-11-18T11:06:20;99829.69;;;14.60;66.05
13593;BME280;6867;50.998;4.250;2022-11-18T11:08:49;99820.78;;;14.97;65.38
13593;BME280;6867;50.998;4.250;2022-11-18T11:11:23;99807.69;;;15.20;64.59
13593;BME280;6867;50.998;4.250;2022-11-18T11:13:54;99812.59;;;15.29;64.32
13593;BME280;6867;50.998;4.250;2022-11-18T11:16:24;99801.44;;;15.15;63.86
13593;BME280;6867;50.998;4.250;2022-11-18T11:18:57;99818.41;;;15.05;64.76
13593;BME280;6867;50.998;4.250;2022-11-18T11:21:25;99794.50;;;14.92;63.63
13593;BME280;6867;50.998;4.250;2022-11-18T11:23:52;99799.97;;;14.97;63.96
13593;BME280;6867;50.998;4.250;2022-11-18T11:26:24;99809.69;;;14.93;64.42
13593;BME280;6867;50.998;4.250;2022-11-18T11:29:01;99807.22;;;14.91;63.94
13593;BME280;6867;50.998;4.250;2022-11-18T11:31:39;99811.81;;;14.91;63.85
13593;BME280;6867;50.998;4.250;2022-11-18T11:34:17;99816.19;;;14.97;63.95
13593;BME280;6867;50.998;4.250;2022-11-18T11:36:49;99827.72;;;14.87;64.08
13593;BME280;6867;50.998;4.250;2022-11-18T11:39:39;99844.50;;;14.84;64.22
13593;BME280;6867;50.998;4.250;2022-11-18T11:42:16;99845.03;;;14.86;64.80
13593;BME280;6867;50.998;4.250;2022-11-18T11:44:57;99855.38;;;14.94;64.36
13593;BME280;6867;50.998;4.250;2022-11-18T11:47:33;99858.41;;;14.71;65.15
13593;BME280;6867;50.998;4.250;2022-11-18T11:50:18;99880.91;;;14.50;65.76
13593;BME280;6867;50.998;4.250;2022-11-18T11:52:57;99878.84;;;14.57;65.88
13593;BME280;6867;50.998;4.250;2022-11-18T11:55:32;99904.84;;;14.41;66.78
13593;BME280;6867;50.998;4.250;2022-11-18T11:58:12;99900.31;;;13.98;67.20
13593;BME280;6867;50.998;4.250;2022-11-18T12:00:48;99919.69;;;14.16;67.77
13593;BME280;6867;50.998;4.250;2022-11-18T12:03:45;99941.25;;;14.11;68.46
13593;BME280;6867;50.998;4.250;2022-11-18T12:06:13;99940.47;;;13.94;68.45
13593;BME280;6867;50.998;4.250;2022-11-18T12:08:48;99946.91;;;13.88;69.36
13593;BME280;6867;50.998;4.250;2022-11-18T12:11:20;99965.28;;;13.91;70.41
13593;BME280;6867;50.998;4.250;2022-11-18T12:13:55;99954.47;;;13.91;70.32
13593;BME280;6867;50.998;4.250;2022-11-18T12:16:30;99965.91;;;13.98;70.64
13593;BME280;6867;50.998;4.250;2022-11-18T12:19:05;99962.78;;;14.06;70.62
13593;BME280;6867;50.998;4.250;2022-11-18T12:22:07;99958.41;;;13.83;71.13
13593;BME280;6867;50.998;4.250;2022-11-18T12:24:38;99972.94;;;13.99;71.36
13593;BME280;6867;50.998;4.250;2022-11-18T12:27:11;99975.19;;;13.85;71.27
13593;BME280;6867;50.998;4.250;2022-11-18T12:29:52;99963.47;;;13.97;71.40
13593;BME280;6867;50.998;4.250;2022-11-18T12:32:36;99979.34;;;13.93;71.75
13593;BME280;6867;50.998;4.250;2022-11-18T12:35:22;99969.53;;;13.87;71.41
13593;BME280;6867;50.998;4.250;2022-11-18T12:38:00;99971.16;;;14.05;71.38
13593;BME280;6867;50.998;4.250;2022-11-18T12:40:33;99976.13;;;13.96;71.41
13593;BME280;6867;50.998;4.250;2022-11-18T12:43:00;99969.84;;;13.90;71.23
13593;BME280;6867;50.998;4.250;2022-11-18T12:45:51;99982.81;;;13.88;71.61
13593;BME280;6867;50.998;4.250;2022-11-18T12:48:37;99971.91;;;13.83;71.91
13593;BME280;6867;50.998;4.250;2022-11-18T12:54:30;99976.59;;;13.88;72.01
13593;BME280;6867;50.998;4.250;2022-11-18T12:57:00;99979.38;;;13.76;72.27
13593;BME280;6867;50.998;4.250;2022-11-18T12:59:29;99982.50;;;13.68;72.59
13593;BME280;6867;50.998;4.250;2022-11-18T13:02:05;99985.19;;;13.85;72.41
13593;BME280;6867;50.998;4.250;2022-11-18T13:04:33;99969.19;;;14.00;71.62
13593;BME280;6867;50.998;4.250;2022-11-18T13:07:01;99970.50;;;13.98;71.64
13593;BME280;6867;50.998;4.250;2022-11-18T13:09:29;99970.25;;;13.99;71.63
13593;BME280;6867;50.998;4.250;2022-11-18T13:12:01;99975.09;;;13.97;71.99
13593;BME280;6867;50.998;4.250;2022-11-18T13:14:32;99971.00;;;13.94;71.89
13593;BME280;6867;50.998;4.250;2022-11-18T13:17:24;99978.84;;;13.96;71.69
13593;BME280;6867;50.998;4.250;2022-11-18T13:20:22;99981.31;;;13.98;72.26
13593;BME280;6867;50.998;4.250;2022-11-18T13:22:49;99982.81;;;13.88;72.38
13593;BME280;6867;50.998;4.250;2022-11-18T13:25:34;99982.28;;;13.91;72.45
13593;BME280;6867;50.998;4.250;2022-11-18T13:28:07;99995.78;;;13.91;72.70
13593;BME280;6867;50.998;4.250;2022-11-18T13:30:43;99997.75;;;13.96;72.62
13593;BME280;6867;50.998;4.250;2022-11-18T13:33:13;99997.94;;;13.89;72.96
13593;BME280;6867;50.998;4.250;2022-11-18T13:35:41;100005.69;;;13.86;73.65
13593;BME280;6867;50.998;4.250;2022-11-18T13:38:18;100011.13;;;14.08;73.17
13593;BME280;6867;50.998;4.250;2022-11-18T13:40:47;100008.69;;;14.06;73.28
13593;BME280;6867;50.998;4.250;2022-11-18T13:43:29;100007.69;;;14.12;73.92
13593;BME280;6867;50.998;4.250;2022-11-18T13:45:56;100016.19;;;14.21;73.63
13593;BME280;6867;50.998;4.250;2022-11-18T13:48:24;100019.84;;;14.32;73.88